createdAt,value
2018-09-14T00:00:39.808Z,95215.74
2018-09-14T00:03:09.022Z,95215.02
2018-09-14T00:05:38.260Z,95213.48
2018-09-14T00:08:07.487Z,95222.14
2018-09-14T00:10:36.709Z,95214.73
2018-09-14T00:13:06.197Z,95219.52
2018-09-14T00:15:35.418Z,95214.52
2018-09-14T00:18:04.647Z,95220.64
2018-09-14T00:20:33.886Z,95224.39
2018-09-14T00:23:03.114Z,95223.90
2018-09-14T00:25:32.350Z,95220.94
2018-09-14T00:28:01.570Z,95222.47
2018-09-14T00:30:30.804Z,95221.41
2018-09-14T00:33:00.031Z,95225.70
2018-09-14T00:35:29.296Z,95221.55
2018-09-14T00:37:58.544Z,95220.41
2018-09-14T00:40:27.766Z,95219.82
2018-09-14T00:42:57.047Z,95220.41
2018-09-14T00:45:26.577Z,95211.55
2018-09-14T00:47:55.807Z,95218.08
2018-09-14T00:50:25.036Z,95212.99
2018-09-14T00:52:54.277Z,95216.55
2018-09-14T00:55:23.504Z,95209.61
2018-09-14T00:57:52.743Z,95212.84
2018-09-14T01:00:22.011Z,95209.41
2018-09-14T01:02:51.226Z,95209.91
2018-09-14T01:05:20.470Z,95205.94
2018-09-14T01:07:49.702Z,95207.16
2018-09-14T01:10:18.934Z,95210.81
2018-09-14T01:12:48.162Z,95211.00
2018-09-14T01:15:17.400Z,95212.33
2018-09-14T01:17:46.643Z,95207.75
2018-09-14T01:20:15.896Z,95214.27
2018-09-14T01:22:45.097Z,95211.30
2018-09-14T01:25:14.345Z,95208.36
2018-09-14T01:27:43.583Z,95209.88
2018-09-14T01:30:12.837Z,95213.23
2018-09-14T01:32:42.070Z,95214.25
2018-09-14T01:35:16.442Z,95217.00
2018-09-14T01:37:45.697Z,95214.45
2018-09-14T01:40:14.926Z,95210.38
2018-09-14T01:42:44.167Z,95205.59
2018-09-14T01:45:13.410Z,95206.80
2018-09-14T01:47:42.653Z,95205.80
2018-09-14T01:50:11.907Z,95213.95
2018-09-14T01:52:41.154Z,95209.17
2018-09-14T01:55:10.391Z,95213.74
2018-09-14T01:57:39.639Z,95212.00
2018-09-14T02:00:08.910Z,95210.17
2018-09-14T02:02:38.146Z,95207.74
2018-09-14T02:05:07.372Z,95203.55
2018-09-14T02:07:36.602Z,95211.89
2018-09-14T02:10:05.934Z,95206.81
2018-09-14T02:12:35.170Z,95203.75
2018-09-14T02:15:04.461Z,95209.14
2018-09-14T02:17:33.703Z,95206.28
2018-09-14T02:20:02.929Z,95210.77
2018-09-14T02:22:32.163Z,95208.70
2018-09-14T02:25:01.387Z,95206.37
2018-09-14T02:27:30.624Z,95207.91
2018-09-14T02:29:59.837Z,95210.02
2018-09-14T02:32:29.078Z,95210.42
2018-09-14T02:34:58.318Z,95212.64
2018-09-14T02:37:27.722Z,95214.83
2018-09-14T02:39:56.952Z,95216.94
2018-09-14T02:42:26.179Z,95219.77
2018-09-14T02:44:55.431Z,95218.30
2018-09-14T02:47:24.657Z,95211.75
2018-09-14T02:49:53.917Z,95215.52
2018-09-14T02:52:23.168Z,95210.97
2018-09-14T02:54:52.394Z,95214.75
2018-09-14T02:57:21.635Z,95220.70
2018-09-14T02:59:50.870Z,95224.67
2018-09-14T03:02:20.105Z,95225.84
2018-09-14T03:04:49.346Z,95234.98
2018-09-14T03:07:18.601Z,95243.18
2018-09-14T03:09:47.833Z,95239.59
2018-09-14T03:12:17.122Z,95246.80
2018-09-14T03:14:46.304Z,95244.66
2018-09-14T03:17:15.537Z,95242.01
2018-09-14T03:19:44.790Z,95245.59
2018-09-14T03:22:20.653Z,95246.36
2018-09-14T03:24:49.886Z,95248.56
2018-09-14T03:27:19.118Z,95249.27
2018-09-14T03:29:48.366Z,95248.94
2018-09-14T03:32:17.664Z,95253.55
2018-09-14T03:34:46.864Z,95248.94
2018-09-14T03:37:16.086Z,95253.23
2018-09-14T03:39:45.442Z,95250.27
2018-09-14T03:42:14.664Z,95250.64
2018-09-14T03:44:43.903Z,95263.56
2018-09-14T03:47:13.118Z,95261.97
2018-09-14T03:49:42.365Z,95272.25
2018-09-14T03:52:11.606Z,95264.20
2018-09-14T03:54:40.828Z,95266.31
2018-09-14T03:57:10.066Z,95258.33
2018-09-14T03:59:39.305Z,95252.27
2018-09-14T04:02:08.603Z,95246.13
2018-09-14T04:04:37.836Z,95244.80
2018-09-14T04:07:07.186Z,95245.00
2018-09-14T04:09:36.403Z,95250.53
2018-09-14T04:12:05.659Z,95253.67
2018-09-14T04:14:34.895Z,95258.50
2018-09-14T04:17:04.111Z,95259.65
2018-09-14T04:19:33.338Z,95255.66
2018-09-14T04:22:02.581Z,95265.73
2018-09-14T04:24:31.842Z,95264.33
2018-09-14T04:27:01.061Z,95270.27
2018-09-14T04:29:30.285Z,95273.20
2018-09-14T04:31:59.499Z,95267.17
2018-09-14T04:34:28.736Z,95274.72
2018-09-14T04:36:57.950Z,95273.85
2018-09-14T04:39:27.186Z,95272.83
2018-09-14T04:41:56.415Z,95275.47
2018-09-14T04:44:25.625Z,95279.30
2018-09-14T04:46:54.861Z,95281.20
2018-09-14T04:49:24.102Z,95288.19
2018-09-14T04:51:53.322Z,95292.95
2018-09-14T04:54:22.550Z,95299.31
2018-09-14T04:56:51.792Z,95298.00
2018-09-14T04:59:21.032Z,95297.42
2018-09-14T05:01:50.274Z,95301.02
2018-09-14T05:04:19.509Z,95301.51
2018-09-14T05:06:48.753Z,95306.17
2018-09-14T05:09:17.994Z,95306.63
2018-09-14T05:11:47.213Z,95307.53
2018-09-14T05:14:16.495Z,95313.05
2018-09-14T05:16:45.679Z,95304.05
2018-09-14T05:19:14.901Z,95310.41
2018-09-14T05:21:44.126Z,95296.96
2018-09-14T05:24:13.447Z,95318.45
2018-09-14T05:26:42.605Z,95310.22
2018-09-14T05:29:11.827Z,95313.99
2018-09-14T05:31:41.086Z,95316.80
2018-09-14T05:34:10.358Z,95317.92
2018-09-14T05:36:39.882Z,95314.23
2018-09-14T05:39:09.722Z,95316.92
2018-09-14T05:41:38.951Z,95323.52
2018-09-14T05:44:08.188Z,95319.47
2018-09-14T05:46:37.442Z,95323.49
2018-09-14T05:49:13.331Z,95331.53
2018-09-14T05:51:42.593Z,95330.67
2018-09-14T05:54:11.811Z,95338.55
2018-09-14T05:56:41.036Z,95334.34
2018-09-14T05:59:10.281Z,95336.05
2018-09-14T06:01:40.874Z,95334.92
2018-09-14T06:04:10.107Z,95329.56
2018-09-14T06:06:39.407Z,95338.02
2018-09-14T06:09:11.437Z,95345.70
2018-09-14T06:11:40.680Z,95343.23
2018-09-14T06:14:09.905Z,95343.34
2018-09-14T06:16:39.494Z,95340.91
2018-09-14T06:19:08.716Z,95333.83
2018-09-14T06:21:37.952Z,95332.74
2018-09-14T06:24:07.237Z,95337.89
2018-09-14T06:26:37.360Z,95344.00
2018-09-14T06:29:06.599Z,95343.77
2018-09-14T06:31:35.845Z,95343.94
2018-09-14T06:34:05.065Z,95347.08
2018-09-14T06:36:34.302Z,95351.24
2018-09-14T06:39:03.662Z,95346.70
2018-09-14T06:41:32.893Z,95346.26
2018-09-14T06:44:02.167Z,95345.25
2018-09-14T06:46:31.402Z,95345.94
2018-09-14T06:49:00.646Z,95347.20
2018-09-14T06:51:29.880Z,95348.26
2018-09-14T06:53:59.086Z,95352.40
2018-09-14T06:56:28.319Z,95356.19
2018-09-14T06:58:57.543Z,95361.84
2018-09-14T07:01:26.790Z,95356.12
2018-09-14T07:03:56.027Z,95357.98
2018-09-14T07:06:25.353Z,95349.57
2018-09-14T07:08:54.746Z,95346.02
2018-09-14T07:11:23.979Z,95343.91
2018-09-14T07:13:53.527Z,95346.05
2018-09-14T07:16:22.876Z,95351.52
2018-09-14T07:18:52.101Z,95355.05
2018-09-14T07:21:21.399Z,95358.66
2018-09-14T07:23:50.640Z,95363.06
2018-09-14T07:26:19.875Z,95360.19
2018-09-14T07:28:49.467Z,95363.36
2018-09-14T07:31:18.605Z,95363.45
2018-09-14T07:33:47.890Z,95375.25
2018-09-14T07:36:17.135Z,95371.11
2018-09-14T07:38:46.395Z,95379.84
2018-09-14T07:41:15.630Z,95381.47
2018-09-14T07:43:44.884Z,95380.89
2018-09-14T07:46:14.134Z,95386.05
2018-09-14T07:48:43.359Z,95383.12
2018-09-14T07:51:13.482Z,95390.27
2018-09-14T07:53:42.704Z,95393.32
2018-09-14T07:56:11.934Z,95398.27
2018-09-14T07:58:41.169Z,95393.29
2018-09-14T08:01:10.443Z,95391.36
2018-09-14T08:03:39.655Z,95397.31
2018-09-14T08:06:08.880Z,95394.05
2018-09-14T08:08:38.104Z,95396.87
2018-09-14T08:11:07.355Z,95405.25
2018-09-14T08:13:36.590Z,95404.08
2018-09-14T08:16:05.819Z,95405.18
2018-09-14T08:18:35.046Z,95403.58
2018-09-14T08:21:04.365Z,95400.81
2018-09-14T08:23:33.513Z,95404.58
2018-09-14T08:26:02.767Z,95409.32
2018-09-14T08:28:31.990Z,95406.38
2018-09-14T08:31:01.291Z,95413.27
2018-09-14T08:33:30.641Z,95414.73
2018-09-14T08:35:59.903Z,95406.87
2018-09-14T08:38:29.110Z,95410.05
2018-09-14T08:40:58.369Z,95410.65
2018-09-14T08:43:34.356Z,95418.45
2018-09-14T08:46:03.619Z,95419.58
2018-09-14T08:48:32.882Z,95411.20
2018-09-14T08:51:02.159Z,95415.98
2018-09-14T08:53:31.436Z,95418.45
2018-09-14T08:56:00.717Z,95418.01
2018-09-14T08:58:30.081Z,95419.73
2018-09-14T09:00:59.465Z,95421.03
2018-09-14T09:03:28.814Z,95421.73
2018-09-14T09:05:58.050Z,95426.69
2018-09-14T09:08:27.275Z,95422.64
2018-09-14T09:10:56.509Z,95419.92
2018-09-14T09:13:25.740Z,95420.00
2018-09-14T09:15:55.001Z,95421.92
2018-09-14T09:18:24.243Z,95421.82
2018-09-14T09:20:53.504Z,95421.89
2018-09-14T09:23:22.755Z,95432.47
2018-09-14T09:25:51.963Z,95425.56
2018-09-14T09:28:21.199Z,95427.21
2018-09-14T09:30:50.431Z,95425.75
2018-09-14T09:33:19.710Z,95421.45
2018-09-14T09:35:48.943Z,95422.66
2018-09-14T09:38:18.238Z,95417.73
2018-09-14T09:40:47.522Z,95423.34
2018-09-14T09:43:16.770Z,95418.66
2018-09-14T09:45:45.999Z,95423.78
2018-09-14T09:48:15.271Z,95418.42
2018-09-14T09:50:44.575Z,95416.28
2018-09-14T09:53:13.919Z,95415.88
2018-09-14T09:55:43.164Z,95416.53
2018-09-14T09:58:12.459Z,95417.12
2018-09-14T10:00:42.727Z,95416.62
2018-09-14T10:03:17.180Z,95412.13
2018-09-14T10:05:51.654Z,95413.22
2018-09-14T10:08:20.885Z,95416.77
2018-09-14T10:10:50.107Z,95410.52
2018-09-14T10:13:19.335Z,95407.02
2018-09-14T10:15:48.575Z,95415.33
2018-09-14T10:18:17.826Z,95403.16
2018-09-14T10:20:47.235Z,95403.38
2018-09-14T10:23:16.508Z,95405.98
2018-09-14T10:25:45.739Z,95402.33
2018-09-14T10:28:14.971Z,95400.41
2018-09-14T10:30:44.201Z,95403.39
2018-09-14T10:33:14.326Z,95399.96
2018-09-14T10:35:43.538Z,95400.06
2018-09-14T10:38:12.787Z,95395.48
2018-09-14T10:40:42.049Z,95391.33
2018-09-14T10:43:11.230Z,95393.66
2018-09-14T10:45:40.453Z,95395.77
2018-09-14T10:48:09.695Z,95395.98
2018-09-14T10:50:38.921Z,95400.26
2018-09-14T10:53:08.157Z,95401.36
2018-09-14T10:55:37.459Z,95392.89
2018-09-14T10:58:06.727Z,95397.32
2018-09-14T11:00:36.025Z,95393.93
2018-09-14T11:03:05.270Z,95390.98
2018-09-14T11:05:34.531Z,95394.64
2018-09-14T11:08:03.761Z,95394.79
2018-09-14T11:10:33.014Z,95392.48
2018-09-14T11:13:02.298Z,95398.03
2018-09-14T11:15:32.404Z,95396.53
2018-09-14T11:18:01.645Z,95403.09
2018-09-14T11:20:31.075Z,95400.76
2018-09-14T11:23:00.260Z,95395.20
2018-09-14T11:25:29.554Z,95398.63
2018-09-14T11:27:58.878Z,95392.07
2018-09-14T11:30:28.107Z,95391.11
2018-09-14T11:32:57.376Z,95386.98
2018-09-14T11:35:26.666Z,95389.37
2018-09-14T11:37:56.045Z,95377.42
2018-09-14T11:40:25.171Z,95383.19
2018-09-14T11:42:54.502Z,95377.48
2018-09-14T11:45:23.831Z,95379.69
2018-09-14T11:47:52.963Z,95372.84
2018-09-14T11:50:22.198Z,95377.32
2018-09-14T11:52:51.440Z,95369.71
2018-09-14T11:55:20.690Z,95364.13
2018-09-14T11:57:50.000Z,95359.67
2018-09-14T12:00:19.220Z,95362.95
2018-09-14T12:02:48.526Z,95361.05
2018-09-14T12:05:17.754Z,95352.05
2018-09-14T12:07:47.035Z,95355.12
2018-09-14T12:10:16.284Z,95351.45
2018-09-14T12:12:45.531Z,95350.30
2018-09-14T12:15:14.775Z,95346.58
2018-09-14T12:17:44.014Z,95350.98
2018-09-14T12:20:13.336Z,95346.55
2018-09-14T12:22:42.570Z,95337.03
2018-09-14T12:25:11.807Z,95345.40
2018-09-14T12:27:41.125Z,95352.29
2018-09-14T12:30:10.434Z,95346.14
2018-09-14T12:32:39.658Z,95347.95
2018-09-14T12:35:08.909Z,95348.73
2018-09-14T12:37:38.123Z,95345.86
2018-09-14T12:40:07.510Z,95347.86
2018-09-14T12:42:36.730Z,95342.53
2018-09-14T12:45:05.973Z,95345.08
2018-09-14T12:47:35.165Z,95342.48
2018-09-14T12:50:04.582Z,95340.62
2018-09-14T12:52:33.804Z,95338.13
2018-09-14T12:55:03.051Z,95331.37
2018-09-14T12:57:32.277Z,95327.28
2018-09-14T13:00:01.535Z,95325.92
2018-09-14T13:02:30.767Z,95324.34
2018-09-14T13:04:59.987Z,95318.56
2018-09-14T13:07:29.282Z,95316.94
2018-09-14T13:09:58.595Z,95319.21
2018-09-14T13:12:27.841Z,95321.98
2018-09-14T13:14:57.116Z,95314.20
2018-09-14T13:17:26.344Z,95319.60
2018-09-14T13:19:55.802Z,95323.64
2018-09-14T13:22:25.044Z,95319.88
2018-09-14T13:24:54.270Z,95316.47
2018-09-14T13:27:23.766Z,95316.50
2018-09-14T13:29:53.888Z,95319.27
2018-09-14T13:32:24.362Z,95326.52
2018-09-14T13:34:53.607Z,95315.98
2018-09-14T13:37:22.815Z,95307.86
2018-09-14T13:39:52.044Z,95310.93
2018-09-14T13:42:21.271Z,95307.17
2018-09-14T13:44:50.589Z,95308.77
2018-09-14T13:47:19.738Z,95311.92
2018-09-14T13:49:48.972Z,95309.25
2018-09-14T13:52:18.227Z,95309.41
2018-09-14T13:54:47.437Z,95307.76
2018-09-14T13:57:16.670Z,95311.70
2018-09-14T13:59:45.904Z,95308.36
2018-09-14T14:02:15.142Z,95307.33
2018-09-14T14:04:44.387Z,95311.79
2018-09-14T14:07:13.634Z,95305.69
2018-09-14T14:09:42.876Z,95303.38
2018-09-14T14:12:12.085Z,95303.12
2018-09-14T14:14:41.297Z,95303.89
2018-09-14T14:17:10.703Z,95298.28
2018-09-14T14:19:39.770Z,95300.67
2018-09-14T14:22:09.027Z,95303.94
2018-09-14T14:24:38.255Z,95295.02
2018-09-14T14:27:07.606Z,95298.48
2018-09-14T14:29:36.846Z,95295.95
2018-09-14T14:32:07.401Z,95291.84
2018-09-14T14:34:36.629Z,95295.48
2018-09-14T14:37:05.858Z,95286.64
2018-09-14T14:39:35.067Z,95281.47
2018-09-14T14:42:04.298Z,95282.97
2018-09-14T14:44:33.543Z,95287.28
2018-09-14T14:47:02.773Z,95278.91
2018-09-14T14:49:31.983Z,95287.97
2018-09-14T14:52:01.227Z,95286.30
2018-09-14T14:54:30.457Z,95283.00
2018-09-14T14:56:59.715Z,95272.60
2018-09-14T14:59:28.974Z,95282.36
2018-09-14T15:01:58.243Z,95284.61
2018-09-14T15:04:27.483Z,95276.34
2018-09-14T15:06:56.723Z,95279.03
2018-09-14T15:09:25.977Z,95272.64
2018-09-14T15:11:55.215Z,95274.42
2018-09-14T15:14:24.451Z,95276.27
2018-09-14T15:16:53.679Z,95266.50
2018-09-14T15:19:23.000Z,95270.59
2018-09-14T15:21:52.140Z,95271.55
2018-09-14T15:24:21.360Z,95273.63
2018-09-14T15:26:50.599Z,95271.55
2018-09-14T15:29:19.845Z,95260.97
2018-09-14T15:31:49.099Z,95266.73
2018-09-14T15:34:18.311Z,95267.89
2018-09-14T15:36:47.538Z,95265.15
2018-09-14T15:39:16.766Z,95265.19
2018-09-14T15:41:46.023Z,95266.13
2018-09-14T15:44:16.055Z,95266.44
2018-09-14T15:46:45.294Z,95267.19
2018-09-14T15:49:14.528Z,95264.85
2018-09-14T15:51:43.753Z,95264.38
2018-09-14T15:54:12.991Z,95268.27
2018-09-14T15:56:42.226Z,95270.91
2018-09-14T15:59:11.470Z,95268.53
2018-09-14T16:01:40.749Z,95269.81
2018-09-14T16:04:09.982Z,95267.23
2018-09-14T16:06:39.211Z,95271.16
2018-09-14T16:09:10.077Z,95269.49
2018-09-14T16:11:39.465Z,95267.84
2018-09-14T16:14:09.084Z,95272.95
2018-09-14T16:16:38.339Z,95273.34
2018-09-14T16:19:07.680Z,95268.23
2018-09-14T16:21:38.187Z,95266.58
2018-09-14T16:24:07.557Z,95263.19
2018-09-14T16:26:36.784Z,95268.41
2018-09-14T16:29:06.302Z,95274.13
2018-09-14T16:31:35.621Z,95269.75
2018-09-14T16:34:04.836Z,95272.77
2018-09-14T16:36:34.059Z,95272.22
2018-09-14T16:39:03.414Z,95282.79
2018-09-14T16:41:32.647Z,95281.89
2018-09-14T16:44:01.874Z,95283.65
2018-09-14T16:46:31.099Z,95284.08
2018-09-14T16:49:00.355Z,95285.67
2018-09-14T16:51:29.656Z,95284.56
2018-09-14T16:53:58.837Z,95287.88
2018-09-14T16:56:28.055Z,95282.64
2018-09-14T16:58:57.350Z,95286.02
2018-09-14T17:01:26.618Z,95284.13
2018-09-14T17:03:55.842Z,95288.56
2018-09-14T17:06:25.091Z,95295.31
2018-09-14T17:08:54.276Z,95290.30
2018-09-14T17:11:23.492Z,95293.58
2018-09-14T17:13:52.705Z,95294.69
2018-09-14T17:16:21.933Z,95303.05
2018-09-14T17:18:51.160Z,95304.22
2018-09-14T17:21:20.390Z,95302.89
2018-09-14T17:23:49.620Z,95300.38
2018-09-14T17:26:18.839Z,95300.94
2018-09-14T17:28:48.067Z,95303.77
2018-09-14T17:31:17.316Z,95304.38
2018-09-14T17:38:44.630Z,95310.20
2018-09-14T17:41:13.863Z,95301.33
2018-09-14T17:43:44.354Z,95295.11
2018-09-14T17:46:13.579Z,95302.50
2018-09-14T17:48:42.858Z,95301.47
2018-09-14T17:51:12.079Z,95298.10
2018-09-14T17:53:41.314Z,95305.74
2018-09-14T17:56:10.527Z,95303.98
2018-09-14T17:58:39.851Z,95304.75
2018-09-14T18:01:09.075Z,95313.75
2018-09-14T18:03:38.334Z,95316.23
2018-09-14T18:06:07.638Z,95315.75
2018-09-14T18:08:36.870Z,95325.01
2018-09-14T18:11:06.102Z,95331.72
2018-09-14T18:13:35.342Z,95330.73
2018-09-14T18:16:04.566Z,95331.05
2018-09-14T18:18:34.050Z,95326.41
2018-09-14T18:21:03.268Z,95331.83
2018-09-14T18:23:32.525Z,95339.09
2018-09-14T18:26:01.840Z,95337.67
2018-09-14T18:28:31.088Z,95338.61
2018-09-14T18:31:00.305Z,95340.20
2018-09-14T18:33:29.555Z,95343.89
2018-09-14T18:35:58.810Z,95343.05
2018-09-14T18:38:27.994Z,95347.78
2018-09-14T18:40:57.280Z,95348.28
2018-09-14T18:43:26.520Z,95352.63
2018-09-14T18:45:55.738Z,95355.22
2018-09-14T18:48:24.982Z,95358.51
2018-09-14T18:50:54.864Z,95364.67
2018-09-14T18:53:24.098Z,95370.22
2018-09-14T18:55:53.347Z,95369.56
2018-09-14T18:58:22.627Z,95371.14
2018-09-14T19:00:51.842Z,95370.23
2018-09-14T19:03:21.063Z,95369.44
2018-09-14T19:05:50.294Z,95380.33
2018-09-14T19:08:19.506Z,95380.87
2018-09-14T19:10:48.742Z,95379.98
2018-09-14T19:13:18.028Z,95377.34
2018-09-14T19:15:47.449Z,95378.11
2018-09-14T19:18:16.666Z,95372.78
2018-09-14T19:20:45.877Z,95375.31
2018-09-14T19:23:15.126Z,95376.90
2018-09-14T19:25:44.367Z,95374.34
2018-09-14T19:28:13.593Z,95370.70
2018-09-14T19:30:42.826Z,95375.05
2018-09-14T19:33:12.082Z,95367.44
2018-09-14T19:35:41.295Z,95371.02
2018-09-14T19:38:10.535Z,95371.00
2018-09-14T19:40:39.787Z,95373.48
2018-09-14T19:43:09.023Z,95380.11
2018-09-14T19:45:38.246Z,95380.04
2018-09-14T19:48:07.470Z,95387.48
2018-09-14T19:50:36.697Z,95390.01
2018-09-14T19:53:05.932Z,95384.52
2018-09-14T19:55:35.155Z,95379.22
2018-09-14T19:58:04.386Z,95388.97
2018-09-14T20:00:33.614Z,95394.70
2018-09-14T20:03:02.843Z,95394.20
2018-09-14T20:05:32.083Z,95391.05
2018-09-14T20:08:01.315Z,95385.55
2018-09-14T20:10:30.528Z,95390.66
2018-09-14T20:12:59.778Z,95394.38
2018-09-14T20:15:29.001Z,95400.24
2018-09-14T20:17:58.313Z,95393.56
2018-09-14T20:20:27.491Z,95404.47
2018-09-14T20:22:56.726Z,95406.41
2018-09-14T20:25:25.964Z,95401.12
2018-09-14T20:27:55.214Z,95399.50
2018-09-14T20:30:24.467Z,95401.08
2018-09-14T20:32:53.677Z,95403.77
2018-09-14T20:35:23.066Z,95399.59
2018-09-14T20:37:52.298Z,95395.50
2018-09-14T20:40:21.565Z,95397.29
2018-09-14T20:42:50.774Z,95392.43
2018-09-14T20:45:19.990Z,95403.38
2018-09-14T20:47:49.234Z,95398.11
2018-09-14T20:50:18.479Z,95401.12
2018-09-14T20:52:47.703Z,95390.34
2018-09-14T20:55:16.935Z,95380.98
2018-09-14T20:57:46.156Z,95384.28
2018-09-14T21:00:18.031Z,95390.22
2018-09-14T21:02:47.745Z,95393.12
2018-09-14T21:05:16.987Z,95394.44
2018-09-14T21:07:46.202Z,95387.75
2018-09-14T21:10:15.442Z,95398.39
2018-09-14T21:12:44.708Z,95394.23
2018-09-14T21:15:13.935Z,95386.89
2018-09-14T21:17:43.159Z,95389.06
2018-09-14T21:20:12.395Z,95389.42
2018-09-14T21:22:41.918Z,95385.11
2018-09-14T21:25:11.179Z,95385.58
2018-09-14T21:27:40.427Z,95386.58
2018-09-14T21:30:09.674Z,95389.95
2018-09-14T21:32:39.188Z,95385.89
2018-09-14T21:35:08.401Z,95390.70
2018-09-14T21:37:37.610Z,95389.58
2018-09-14T21:40:07.074Z,95388.63
2018-09-14T21:42:36.302Z,95392.34
2018-09-14T21:45:05.863Z,95394.48
2018-09-14T21:47:35.117Z,95392.20
2018-09-14T21:50:04.394Z,95396.87
2018-09-14T21:52:33.622Z,95396.75
2018-09-14T21:55:02.928Z,95399.36
2018-09-14T21:57:32.177Z,95409.36
2018-09-14T22:00:05.474Z,95411.19
2018-09-14T22:02:34.703Z,95412.52
2018-09-14T22:05:03.919Z,95405.81
2018-09-14T22:07:33.149Z,95407.28
2018-09-14T22:10:03.500Z,95406.92
2018-09-14T22:12:32.759Z,95411.78
2018-09-14T22:15:01.977Z,95416.94
2018-09-14T22:17:31.220Z,95422.59
2018-09-14T22:20:00.431Z,95406.17
2018-09-14T22:22:29.645Z,95396.94
2018-09-14T22:24:58.872Z,95399.66
2018-09-14T22:27:28.126Z,95402.41
2018-09-14T22:29:57.468Z,95403.33
2018-09-14T22:32:26.687Z,95406.45
2018-09-14T22:34:55.915Z,95400.58
2018-09-14T22:37:25.142Z,95405.90
2018-09-14T22:39:54.359Z,95411.53
2018-09-14T22:42:23.594Z,95408.40
2018-09-14T22:44:52.827Z,95409.19
2018-09-14T22:47:22.044Z,95412.44
2018-09-14T22:49:51.302Z,95414.70
2018-09-14T22:52:20.531Z,95413.66
2018-09-14T22:54:49.748Z,95417.22
2018-09-14T22:57:18.975Z,95420.13
2018-09-14T22:59:48.210Z,95417.13
2018-09-14T23:02:17.443Z,95419.11
2018-09-14T23:04:46.666Z,95422.52
2018-09-14T23:07:17.566Z,95421.63
2018-09-14T23:09:46.781Z,95425.88
2018-09-14T23:12:16.018Z,95417.15
2018-09-14T23:14:45.236Z,95421.59
2018-09-14T23:17:14.483Z,95425.06
2018-09-14T23:19:43.698Z,95425.33
2018-09-14T23:22:12.946Z,95417.02
2018-09-14T23:24:42.298Z,95420.91
2018-09-14T23:27:11.522Z,95423.77
2018-09-14T23:29:40.743Z,95419.32
2018-09-14T23:32:09.986Z,95424.27
2018-09-14T23:34:39.261Z,95423.91
2018-09-14T23:37:08.538Z,95423.68
2018-09-14T23:39:37.755Z,95426.64
2018-09-14T23:42:07.042Z,95425.66
2018-09-14T23:44:36.286Z,95424.97
2018-09-14T23:47:05.596Z,95418.57
2018-09-14T23:49:34.831Z,95415.73
2018-09-14T23:52:04.052Z,95412.50
2018-09-14T23:54:33.287Z,95412.53
2018-09-14T23:57:02.509Z,95413.78
2018-09-14T23:59:32.976Z,95412.50
